Time;durP1;ratioP1;P1;durP2;ratioP2;P2;SDS_P1;SDS_P2;PMS_P1;PMS_P2;Temp;Humidity;BMP_temperature;BMP_pressure;BME280_temperature;BME280_humidity;BME280_pressure;Samples;Min_cycle;Max_cycle;Signal;HPM_P1;HPM_P2
2022/07/05 00:01:46;;;;;;;;;;;;;;;16.34;63.17;102065.72;5064089;28;19968;-57
2022/07/05 00:04:12;;;;;;;;;;;;;;;16.27;62.94;102069.06;5062350;28;19920;-56
2022/07/05 00:07:17;;;;;;;;;;;;;;;16.16;63.14;102069.41;5060977;28;19932;-59
2022/07/05 00:09:22;;;;;;;;;;;;;;;16.12;64.16;102066.25;5062326;28;19929;-58
2022/07/05 00:11:47;;;;;;;;;;;;;;;16.12;63.43;102058.22;5062994;28;19925;-58
2022/07/05 00:14:12;;;;;;;;;;;;;;;16.10;63.93;102054.03;5046260;28;20015;-58
2022/07/05 00:16:37;;;;;;;;;;;;;;;16.00;64.21;102052.34;5073109;28;20070;-59
2022/07/05 00:19:03;;;;;;;;;;;;;;;15.94;64.45;102050.34;5062767;28;19924;-58
2022/07/05 00:21:28;;;;;;;;;;;;;;;15.92;64.06;102048.81;5062732;28;20077;-59
2022/07/05 00:23:53;;;;;;;;;;;;;;;15.84;64.13;102047.00;5062943;28;19925;-57
2022/07/05 00:26:18;;;;;;;;;;;;;;;15.84;64.29;102047.00;5065943;28;19943;-58
2022/07/05 00:28:43;;;;;;;;;;;;;;;15.91;63.86;102052.50;5060646;28;19934;-57
2022/07/05 00:31:08;;;;;;;;;;;;;;;15.95;64.07;102054.72;5048148;28;19924;-58
2022/07/05 00:33:34;;;;;;;;;;;;;;;16.00;63.86;102060.38;5056688;28;19925;-59
2022/07/05 00:35:59;;;;;;;;;;;;;;;16.04;63.89;102052.03;5063192;28;19979;-58
2022/07/05 00:38:24;;;;;;;;;;;;;;;16.06;63.67;102052.69;5062947;28;19999;-58
2022/07/05 00:40:49;;;;;;;;;;;;;;;16.07;64.08;102054.34;5060396;28;19931;-58
2022/07/05 00:43:14;;;;;;;;;;;;;;;16.06;64.00;102050.00;5061202;28;19924;-57
2022/07/05 00:45:40;;;;;;;;;;;;;;;16.03;63.85;102043.16;5074423;28;19921;-59
2022/07/05 00:48:05;;;;;;;;;;;;;;;16.00;63.64;102052.34;5063223;28;19975;-59
2022/07/05 00:50:30;;;;;;;;;;;;;;;15.98;63.95;102043.66;5061870;28;20574;-58
2022/07/05 00:52:56;;;;;;;;;;;;;;;15.96;64.19;102040.34;5064896;28;19964;-57
2022/07/05 00:55:21;;;;;;;;;;;;;;;15.93;64.59;102046.00;5072914;28;19935;-58
2022/07/05 00:57:46;;;;;;;;;;;;;;;15.91;64.48;102053.34;5059256;28;20019;-59
2022/07/05 01:00:12;;;;;;;;;;;;;;;15.88;64.58;102051.00;5061567;28;20375;-57
2022/07/05 01:02:37;;;;;;;;;;;;;;;15.79;64.92;102054.69;5066258;28;19925;-57
2022/07/05 01:05:03;;;;;;;;;;;;;;;15.68;65.41;102045.13;5066937;28;20018;-57
2022/07/05 01:07:28;;;;;;;;;;;;;;;15.63;65.28;102053.66;5068503;28;19929;-59
2022/07/05 01:09:54;;;;;;;;;;;;;;;15.59;64.96;102060.31;5070486;28;19931;-58
2022/07/05 01:12:19;;;;;;;;;;;;;;;15.53;65.63;102052.97;5073292;28;19924;-58
2022/07/05 01:14:44;;;;;;;;;;;;;;;15.39;65.59;102051.78;5054190;28;19924;-59
2022/07/05 01:17:10;;;;;;;;;;;;;;;15.32;66.32;102054.28;5066737;28;19935;-58
2022/07/05 01:19:36;;;;;;;;;;;;;;;15.30;66.05;102050.94;5065122;28;19932;-58
2022/07/05 01:22:05;;;;;;;;;;;;;;;15.30;66.36;102054.44;5047076;28;19931;-59
2022/07/05 01:24:30;;;;;;;;;;;;;;;15.27;66.02;102057.44;5065142;28;20300;-58
2022/07/05 01:26:56;;;;;;;;;;;;;;;15.24;66.06;102056.94;5046752;28;20453;-57
2022/07/05 01:29:21;;;;;;;;;;;;;;;15.22;66.48;102061.59;5065539;28;20440;-58
2022/07/05 01:31:46;;;;;;;;;;;;;;;15.20;66.53;102046.56;5064817;28;20419;-57
2022/07/05 01:34:11;;;;;;;;;;;;;;;15.18;66.01;102055.72;5066735;28;19958;-59
2022/07/05 01:36:37;;;;;;;;;;;;;;;15.18;66.48;102053.91;5064942;28;20011;-58
2022/07/05 01:39:05;;;;;;;;;;;;;;;15.18;66.02;102051.22;5072418;28;19932;-58
2022/07/05 01:41:30;;;;;;;;;;;;;;;15.18;66.08;102058.41;5064134;28;19924;-58
2022/07/05 01:43:56;;;;;;;;;;;;;;;15.15;66.11;102059.56;5052540;28;19924;-59
2022/07/05 01:46:22;;;;;;;;;;;;;;;15.15;66.33;102054.22;5064713;28;19951;-57
2022/07/05 01:48:49;;;;;;;;;;;;;;;15.13;66.86;102058.03;5073805;28;19920;-58
2022/07/05 01:51:34;;;;;;;;;;;;;;;15.06;66.93;102055.19;5080671;28;19924;-59
2022/07/05 01:54:00;;;;;;;;;;;;;;;15.03;66.74;102058.19;5074895;28;19935;-58
2022/07/05 01:56:25;;;;;;;;;;;;;;;15.04;66.88;102052.69;5066896;28;19928;-58
2022/07/05 01:58:51;;;;;;;;;;;;;;;15.05;67.11;102048.19;5065033;28;19959;-58
2022/07/05 02:01:30;;;;;;;;;;;;;;;15.05;67.07;102056.22;5059381;28;19956;-58
2022/07/05 02:03:56;;;;;;;;;;;;;;;15.01;67.64;102052.19;5052594;28;19928;-58
2022/07/05 02:06:21;;;;;;;;;;;;;;;14.93;67.27;102048.47;5066927;28;20822;-59
2022/07/05 02:08:46;;;;;;;;;;;;;;;14.87;67.37;102051.78;5067337;28;19921;-57
2022/07/05 02:11:11;;;;;;;;;;;;;;;14.87;67.29;102043.78;5073874;28;20382;-57
2022/07/05 02:13:38;;;;;;;;;;;;;;;14.88;67.63;102037.44;5078436;28;20011;-59
2022/07/05 02:16:03;;;;;;;;;;;;;;;14.89;67.75;102044.44;5076250;28;19924;-57
2022/07/05 02:18:28;;;;;;;;;;;;;;;14.91;68.08;102042.44;5067489;28;20022;-58
2022/07/05 02:20:53;;;;;;;;;;;;;;;14.92;67.51;102044.13;5064430;28;19975;-58
2022/07/05 02:23:18;;;;;;;;;;;;;;;14.93;67.91;102043.13;5063999;28;20286;-58
2022/07/05 02:25:44;;;;;;;;;;;;;;;14.91;67.88;102041.63;5067714;28;20291;-57
2022/07/05 02:28:09;;;;;;;;;;;;;;;14.88;68.08;102042.78;5067870;28;19928;-58
2022/07/05 02:30:34;;;;;;;;;;;;;;;14.79;68.32;102046.41;5064915;28;19924;-58
2022/07/05 02:32:59;;;;;;;;;;;;;;;14.73;67.98;102039.84;5066126;28;19928;-57
2022/07/05 02:35:24;;;;;;;;;;;;;;;14.74;68.03;102044.22;5067430;28;19951;-59
2022/07/05 02:37:50;;;;;;;;;;;;;;;14.76;68.27;102044.88;5062939;28;19925;-58
2022/07/05 02:40:15;;;;;;;;;;;;;;;14.77;67.98;102045.72;5054143;28;19935;-57
2022/07/05 02:42:40;;;;;;;;;;;;;;;14.76;68.09;102044.06;5042234;28;19925;-58
2022/07/05 02:45:06;;;;;;;;;;;;;;;14.75;68.03;102047.75;5078760;28;19970;-57
2022/07/05 02:47:31;;;;;;;;;;;;;;;14.74;68.10;102046.88;5064116;28;19924;-59
2022/07/05 02:50:03;;;;;;;;;;;;;;;14.76;67.85;102049.41;5064006;28;20390;-59
2022/07/05 02:52:29;;;;;;;;;;;;;;;14.76;68.49;102049.41;5062382;28;19933;-58
2022/07/05 02:54:54;;;;;;;;;;;;;;;14.72;68.29;102054.19;5064908;28;19924;-58
2022/07/05 02:57:19;;;;;;;;;;;;;;;14.64;68.62;102056.81;5064395;28;20383;-59
2022/07/05 02:59:44;;;;;;;;;;;;;;;14.57;68.85;102067.28;5065477;28;19924;-58
2022/07/05 03:02:09;;;;;;;;;;;;;;;14.51;69.26;102067.94;5064551;28;19931;-58
2022/07/05 03:04:34;;;;;;;;;;;;;;;14.44;70.19;102061.53;5076357;28;20593;-57
2022/07/05 03:07:00;;;;;;;;;;;;;;;14.06;70.18;102065.25;5059315;28;19931;-58
2022/07/05 03:09:25;;;;;;;;;;;;;;;14.02;70.57;102069.25;5062806;28;19928;-58
2022/07/05 03:11:50;;;;;;;;;;;;;;;14.04;70.08;102077.94;5049168;28;19935;-59
2022/07/05 03:14:15;;;;;;;;;;;;;;;14.00;70.07;102073.88;5061259;28;20386;-59
2022/07/05 03:16:40;;;;;;;;;;;;;;;13.90;70.26;102073.97;5061531;28;19935;-58
2022/07/05 03:19:05;;;;;;;;;;;;;;;13.89;70.20;102068.78;5061692;28;19924;-59
2022/07/05 03:21:31;;;;;;;;;;;;;;;13.92;69.96;102073.81;5046882;28;19924;-58
2022/07/05 03:23:56;;;;;;;;;;;;;;;13.94;69.81;102078.03;5047481;28;19928;-58
2022/07/05 03:26:21;;;;;;;;;;;;;;;13.97;70.25;102087.53;5066439;28;19928;-58
2022/07/05 03:28:46;;;;;;;;;;;;;;;13.97;70.29;102082.22;5069093;28;19924;-58
2022/07/05 03:31:11;;;;;;;;;;;;;;;13.97;69.89;102076.88;5064089;28;19924;-59
2022/07/05 03:33:36;;;;;;;;;;;;;;;13.99;69.80;102086.41;5062935;28;20363;-58
2022/07/05 03:36:02;;;;;;;;;;;;;;;14.01;70.05;102078.22;5056695;28;19924;-59
2022/07/05 03:38:27;;;;;;;;;;;;;;;13.96;70.16;102085.88;5063357;28;19924;-57
2022/07/05 03:40:52;;;;;;;;;;;;;;;13.93;70.31;102083.50;5079801;28;20007;-60
2022/07/05 03:43:17;;;;;;;;;;;;;;;13.88;70.41;102081.28;5063155;28;20283;-58
2022/07/05 03:45:42;;;;;;;;;;;;;;;13.84;70.84;102083.44;5063769;28;19935;-59
2022/07/05 03:48:08;;;;;;;;;;;;;;;13.76;70.99;102095.84;5060820;28;19928;-59
2022/07/05 03:50:33;;;;;;;;;;;;;;;13.67;70.61;102092.25;5056247;28;20432;-59
2022/07/05 03:52:58;;;;;;;;;;;;;;;13.57;70.67;102093.16;5061807;28;19928;-60
2022/07/05 03:55:23;;;;;;;;;;;;;;;13.59;70.90;102096.50;5063882;28;19951;-59
2022/07/05 03:57:48;;;;;;;;;;;;;;;13.64;71.11;102101.41;5061999;28;20336;-58
2022/07/05 04:00:14;;;;;;;;;;;;;;;13.64;70.97;102098.72;5060530;28;20453;-60
2022/07/05 04:02:39;;;;;;;;;;;;;;;13.65;72.19;102104.88;5053631;28;19925;-57
2022/07/05 04:05:05;;;;;;;;;;;;;;;13.64;70.80;102095.22;5061400;28;19931;-58
2022/07/05 04:07:30;;;;;;;;;;;;;;;13.71;70.56;102096.28;5077854;28;19921;-58
2022/07/05 04:09:56;;;;;;;;;;;;;;;13.73;70.71;102107.66;5060241;28;19928;-60
2022/07/05 04:12:21;;;;;;;;;;;;;;;13.72;72.03;102114.78;5076458;28;19959;-59
2022/07/05 04:14:46;;;;;;;;;;;;;;;13.65;71.81;102104.88;5079677;28;19925;-58
2022/07/05 04:17:11;;;;;;;;;;;;;;;13.67;70.91;102102.94;5071413;28;19928;-61
2022/07/05 04:19:36;;;;;;;;;;;;;;;13.75;70.38;102108.31;5061012;28;19924;-62
2022/07/05 04:22:02;;;;;;;;;;;;;;;13.81;70.56;102115.72;5067940;28;19947;-63
2022/07/05 04:24:27;;;;;;;;;;;;;;;13.84;70.51;102114.56;5063441;28;19924;-62
2022/07/05 04:26:52;;;;;;;;;;;;;;;13.88;70.48;102109.78;5064443;28;19920;-59
2022/07/05 04:29:17;;;;;;;;;;;;;;;13.94;70.49;102109.16;5074183;28;19924;-58
2022/07/05 04:31:43;;;;;;;;;;;;;;;13.99;70.34;102102.41;5067536;28;20473;-60
2022/07/05 04:34:08;;;;;;;;;;;;;;;14.07;70.29;102104.28;5068157;28;19920;-58
2022/07/05 04:36:33;;;;;;;;;;;;;;;14.13;70.18;102108.16;5072925;28;19920;-59
2022/07/05 04:38:59;;;;;;;;;;;;;;;14.19;70.52;102112.91;5055964;28;20391;-58
2022/07/05 04:41:24;;;;;;;;;;;;;;;14.22;70.21;102109.91;5058273;28;19931;-60
2022/07/05 04:43:49;;;;;;;;;;;;;;;14.28;70.42;102108.47;5056219;28;19947;-60
2022/07/05 04:46:15;;;;;;;;;;;;;;;14.31;70.90;102108.13;5058676;28;20035;-59
2022/07/05 04:48:40;;;;;;;;;;;;;;;14.32;71.04;102112.50;5056043;28;19920;-60
2022/07/05 04:51:05;;;;;;;;;;;;;;;14.36;70.36;102111.19;5059494;28;19934;-60
2022/07/05 04:53:30;;;;;;;;;;;;;;;14.43;71.08;102110.56;5056156;28;19936;-61
2022/07/05 04:55:55;;;;;;;;;;;;;;;14.45;71.10;102105.91;5061343;28;19986;-58
2022/07/05 04:58:21;;;;;;;;;;;;;;;14.50;70.63;102106.25;5054166;28;20433;-58
2022/07/05 05:00:46;;;;;;;;;;;;;;;14.55;70.84;102106.63;5059626;28;20283;-58
2022/07/05 05:03:11;;;;;;;;;;;;;;;14.60;70.34;102115.00;5057634;28;19924;-61
2022/07/05 05:05:36;;;;;;;;;;;;;;;14.65;70.52;102112.72;5060533;28;19924;-58
2022/07/05 05:08:02;;;;;;;;;;;;;;;14.75;70.57;102106.47;5055987;28;19924;-60
2022/07/05 05:10:27;;;;;;;;;;;;;;;14.79;70.64;102103.31;5058081;28;19968;-60
2022/07/05 05:12:52;;;;;;;;;;;;;;;14.86;69.91;102108.84;5057395;28;19925;-58
2022/07/05 05:15:17;;;;;;;;;;;;;;;14.91;69.69;102111.88;5054537;28;19925;-60
2022/07/05 05:17:43;;;;;;;;;;;;;;;14.99;70.06;102112.94;5074898;28;19978;-59
2022/07/05 05:20:17;;;;;;;;;;;;;;;15.05;71.35;102105.09;5055116;28;20015;-60
2022/07/05 05:22:42;;;;;;;;;;;;;;;15.05;70.42;102117.66;5058966;28;20295;-61
2022/07/05 05:25:08;;;;;;;;;;;;;;;15.09;70.08;102113.63;5051825;28;19924;-60
2022/07/05 05:27:34;;;;;;;;;;;;;;;15.14;69.74;102114.00;5054846;28;20458;-58
2022/07/05 05:29:59;;;;;;;;;;;;;;;15.23;69.41;102125.56;5057626;28;20011;-58
2022/07/05 05:32:24;;;;;;;;;;;;;;;15.28;69.62;102127.75;5058301;28;19928;-59
2022/07/05 05:34:49;;;;;;;;;;;;;;;15.33;69.29;102125.41;5057265;28;19963;-58
2022/07/05 05:37:15;;;;;;;;;;;;;;;15.38;69.60;102136.47;5052631;28;20381;-59
2022/07/05 05:39:40;;;;;;;;;;;;;;;15.41;69.95;102143.31;5058207;28;20023;-58
2022/07/05 05:42:05;;;;;;;;;;;;;;;15.42;69.91;102145.84;5057527;28;20035;-60
2022/07/05 05:44:30;;;;;;;;;;;;;;;15.44;69.44;102141.16;5053818;28;20010;-58
2022/07/05 05:46:56;;;;;;;;;;;;;;;15.46;70.01;102144.50;5060804;28;19921;-60
2022/07/05 05:49:21;;;;;;;;;;;;;;;15.51;70.07;102143.19;5052161;28;19935;-59
2022/07/05 05:51:46;;;;;;;;;;;;;;;15.57;69.88;102145.22;5056012;28;20798;-59
2022/07/05 05:54:11;;;;;;;;;;;;;;;15.59;70.17;102146.72;5054000;28;19928;-60
2022/07/05 05:56:38;;;;;;;;;;;;;;;15.60;70.13;102151.06;5057336;28;19947;-58
2022/07/05 05:59:03;;;;;;;;;;;;;;;15.64;70.39;102148.91;5075283;28;20014;-58
2022/07/05 06:01:28;;;;;;;;;;;;;;;15.61;69.72;102146.56;5058607;28;19932;-58
2022/07/05 06:03:53;;;;;;;;;;;;;;;15.63;69.91;102152.59;5055150;28;20493;-60
2022/07/05 06:06:19;;;;;;;;;;;;;;;15.65;69.76;102155.09;5055565;28;19921;-58
2022/07/05 06:08:44;;;;;;;;;;;;;;;15.63;70.04;102152.59;5056973;28;19931;-59
2022/07/05 06:11:09;;;;;;;;;;;;;;;15.68;69.78;102158.28;5053956;28;19925;-59
2022/07/05 06:13:34;;;;;;;;;;;;;;;15.72;69.98;102158.78;5056933;28;20164;-57
2022/07/05 06:16:00;;;;;;;;;;;;;;;15.76;69.44;102145.94;5053875;28;19928;-60
2022/07/05 06:18:25;;;;;;;;;;;;;;;15.83;69.72;102158.47;5054943;28;20321;-60
2022/07/05 06:20:50;;;;;;;;;;;;;;;15.90;69.67;102164.03;5056899;28;19933;-59
2022/07/05 06:23:16;;;;;;;;;;;;;;;15.97;69.88;102164.22;5051397;28;20016;-60
2022/07/05 06:25:41;;;;;;;;;;;;;;;16.04;69.65;102165.22;5049422;28;20509;-59
2022/07/05 06:28:07;;;;;;;;;;;;;;;16.11;69.74;102160.06;5052208;28;21663;-58
2022/07/05 06:30:33;;;;;;;;;;;;;;;16.17;69.47;102164.75;5051357;28;19974;-60
2022/07/05 06:32:58;;;;;;;;;;;;;;;16.20;69.00;102169.78;5053605;28;19925;-58
2022/07/05 06:35:24;;;;;;;;;;;;;;;16.34;68.84;102175.47;5053694;28;19928;-60
2022/07/05 06:37:53;;;;;;;;;;;;;;;16.33;68.78;102179.16;5059693;28;20317;-58
2022/07/05 06:40:23;;;;;;;;;;;;;;;16.38;68.41;102176.81;5049184;28;19924;-58
2022/07/05 06:42:48;;;;;;;;;;;;;;;16.45;68.19;102169.78;5074690;28;20011;-58
2022/07/05 06:45:14;;;;;;;;;;;;;;;16.50;68.48;102170.09;5056766;28;19920;-59
2022/07/05 06:47:40;;;;;;;;;;;;;;;16.55;68.57;102172.28;5054459;28;20383;-59
2022/07/05 06:50:06;;;;;;;;;;;;;;;16.63;68.88;102174.13;5068854;28;20880;-58
2022/07/05 06:52:32;;;;;;;;;;;;;;;16.72;68.50;102182.97;5050104;28;19931;-59
2022/07/05 06:54:58;;;;;;;;;;;;;;;16.74;68.79;102172.91;5061339;28;19924;-60
2022/07/05 06:57:23;;;;;;;;;;;;;;;16.76;68.68;102179.78;5059047;28;20481;-60
2022/07/05 06:59:48;;;;;;;;;;;;;;;16.70;68.55;102185.81;5056768;28;19932;-58
2022/07/05 07:02:14;;;;;;;;;;;;;;;16.66;68.61;102179.13;5058734;28;19931;-58
2022/07/05 07:04:39;;;;;;;;;;;;;;;16.72;68.45;102183.78;5064041;28;19920;-59
2022/07/05 07:09:17;;;;;;;;;;;;;;;16.85;68.12;102177.06;5074532;28;19931;-59
2022/07/05 07:09:49;;;;;;;;;;;;;;;16.96;68.48;102179.41;5062367;28;19924;-59
2022/07/05 07:12:14;;;;;;;;;;;;;;;17.12;68.40;102178.53;5061374;28;19932;-60
2022/07/05 07:14:39;;;;;;;;;;;;;;;17.23;67.92;102182.72;5060601;28;19973;-58
2022/07/05 07:17:05;;;;;;;;;;;;;;;17.32;68.26;102180.84;5057187;28;19928;-59
2022/07/05 07:19:30;;;;;;;;;;;;;;;17.39;67.93;102175.59;5056484;28;19931;-59
2022/07/05 07:21:55;;;;;;;;;;;;;;;17.41;68.33;102178.97;5067533;28;19932;-59
2022/07/05 07:24:21;;;;;;;;;;;;;;;17.50;67.94;102185.94;5061857;28;19928;-59
2022/07/05 07:27:04;;;;;;;;;;;;;;;17.55;67.59;102182.72;5055885;28;19924;-60
2022/07/05 07:29:30;;;;;;;;;;;;;;;17.69;67.80;102184.69;5060920;28;19932;-58
2022/07/05 07:31:56;;;;;;;;;;;;;;;17.59;67.78;102186.75;5052569;28;19928;-59
2022/07/05 07:34:21;;;;;;;;;;;;;;;17.64;67.80;102187.06;5059516;28;20077;-59
2022/07/05 07:36:47;;;;;;;;;;;;;;;17.71;67.72;102184.50;5051685;28;20386;-59
2022/07/05 07:39:12;;;;;;;;;;;;;;;17.71;67.82;102192.56;5054448;28;19931;-59
2022/07/05 07:41:38;;;;;;;;;;;;;;;17.74;67.59;102192.19;5054582;28;19924;-58
2022/07/05 07:44:03;;;;;;;;;;;;;;;17.79;68.16;102189.81;5057652;28;19924;-58
2022/07/05 07:46:28;;;;;;;;;;;;;;;17.90;67.64;102195.81;5067577;28;19923;-60
2022/07/05 07:48:53;;;;;;;;;;;;;;;17.98;67.76;102198.41;5060155;28;19924;-59
2022/07/05 07:51:21;;;;;;;;;;;;;;;18.04;67.85;102186.97;5051151;28;19948;-58
2022/07/05 07:53:46;;;;;;;;;;;;;;;18.12;67.17;102195.00;5055330;28;19974;-58
2022/07/05 07:56:11;;;;;;;;;;;;;;;18.19;67.40;102194.28;5070650;28;19964;-60
2022/07/05 07:58:36;;;;;;;;;;;;;;;18.25;67.47;102189.03;5065751;28;19925;-58
2022/07/05 08:01:02;;;;;;;;;;;;;;;18.33;67.73;102196.19;5060469;28;20009;-59
2022/07/05 08:03:27;;;;;;;;;;;;;;;18.46;66.90;102200.97;5074049;28;20362;-58
2022/07/05 08:05:52;;;;;;;;;;;;;;;18.42;67.04;102205.84;5067404;28;19924;-57
2022/07/05 08:08:17;;;;;;;;;;;;;;;18.49;66.82;102199.75;5054845;28;19924;-58
2022/07/05 08:10:42;;;;;;;;;;;;;;;18.41;66.75;102193.44;5059160;28;19924;-57
2022/07/05 08:13:07;;;;;;;;;;;;;;;18.34;67.14;102195.16;5059603;28;20306;-59
2022/07/05 08:15:33;;;;;;;;;;;;;;;18.38;67.58;102209.91;5061455;28;19924;-62
2022/07/05 08:23:28;;;;;;;;;;;;;;;18.60;67.15;102207.38;5061137;28;22535;-59
2022/07/05 08:25:53;;;;;;;;;;;;;;;18.69;67.39;102206.28;5047073;28;20035;-58
2022/07/05 08:28:18;;;;;;;;;;;;;;;18.66;67.25;102212.00;5056460;28;19930;-59
2022/07/05 08:30:43;;;;;;;;;;;;;;;18.73;67.21;102212.13;5074251;28;19919;-59
2022/07/05 08:33:08;;;;;;;;;;;;;;;18.77;67.13;102218.81;5084208;28;20015;-60
2022/07/05 08:35:33;;;;;;;;;;;;;;;18.75;67.17;102209.25;5077246;28;19924;-58
2022/07/05 08:37:59;;;;;;;;;;;;;;;18.70;67.17;102207.09;5088385;28;19953;-59
2022/07/05 08:40:26;;;;;;;;;;;;;;;18.74;67.22;102202.22;5049729;28;19924;-59
2022/07/05 08:42:52;;;;;;;;;;;;;;;18.80;67.12;102198.81;5081530;28;19978;-58
2022/07/05 08:45:18;;;;;;;;;;;;;;;18.80;67.30;102206.88;5058101;28;20011;-59
2022/07/05 08:47:44;;;;;;;;;;;;;;;18.82;67.10;102200.28;5078177;28;20007;-61
2022/07/05 08:50:09;;;;;;;;;;;;;;;18.80;67.24;102206.88;5060765;28;19925;-61
2022/07/05 08:52:35;;;;;;;;;;;;;;;18.77;66.68;102199.16;5056675;28;19924;-60
2022/07/05 08:55:00;;;;;;;;;;;;;;;18.81;66.56;102200.47;5064252;28;19921;-59
2022/07/05 08:57:25;;;;;;;;;;;;;;;18.94;66.75;102197.97;5062599;28;20028;-59
2022/07/05 08:59:51;;;;;;;;;;;;;;;19.21;66.29;102201.06;5042008;28;19935;-60
2022/07/05 09:02:17;;;;;;;;;;;;;;;19.42;66.00;102198.63;5062636;28;19930;-59
2022/07/05 09:04:44;;;;;;;;;;;;;;;19.71;64.71;102197.75;5083753;28;19927;-60
2022/07/05 09:07:10;;;;;;;;;;;;;;;19.91;64.38;102199.81;5055173;28;19929;-59
2022/07/05 09:09:42;;;;;;;;;;;;;;;20.10;64.30;102205.63;5058105;28;19975;-59
2022/07/05 09:12:07;;;;;;;;;;;;;;;20.10;63.17;102205.63;5070984;28;19970;-59
2022/07/05 09:14:33;;;;;;;;;;;;;;;20.03;62.87;102203.72;5063659;28;19920;-61
2022/07/05 09:16:58;;;;;;;;;;;;;;;20.00;63.24;102206.81;5064067;28;19988;-60
2022/07/05 09:19:23;;;;;;;;;;;;;;;19.81;63.62;102208.22;5066359;28;20414;-58
2022/07/05 09:21:59;;;;;;;;;;;;;;;19.78;63.44;102205.06;5059221;28;19925;-60
2022/07/05 09:24:25;;;;;;;;;;;;;;;19.73;62.76;102211.00;5078600;28;19930;-59
2022/07/05 09:26:50;;;;;;;;;;;;;;;19.87;62.97;102207.44;5069448;28;19920;-58
2022/07/05 09:29:16;;;;;;;;;;;;;;;20.06;62.76;102196.25;5059893;28;20199;-60
2022/07/05 09:31:42;;;;;;;;;;;;;;;20.08;61.23;102197.75;5065668;28;20470;-59
2022/07/05 09:34:08;;;;;;;;;;;;;;;20.21;61.17;102202.44;5058426;28;19978;-60
2022/07/05 09:36:49;;;;;;;;;;;;;;;20.46;61.21;102199.31;5066273;28;19920;-58
2022/07/05 09:39:14;;;;;;;;;;;;;;;20.75;60.06;102207.41;5079937;28;19978;-58
2022/07/05 09:41:39;;;;;;;;;;;;;;;20.86;60.27;102208.78;5055285;28;19956;-59
2022/07/05 09:44:05;;;;;;;;;;;;;;;20.98;58.78;102191.03;5079164;28;20485;-59
2022/07/05 09:46:31;;;;;;;;;;;;;;;20.94;56.45;102190.59;5057074;28;19920;-59
2022/07/05 09:48:56;;;;;;;;;;;;;;;20.97;56.17;102189.38;5052321;28;20007;-62
2022/07/05 09:51:22;;;;;;;;;;;;;;;20.89;58.02;102193.03;5055360;28;20024;-58
2022/07/05 09:53:48;;;;;;;;;;;;;;;20.87;57.87;102183.47;5065259;28;19961;-60
2022/07/05 09:56:17;;;;;;;;;;;;;;;20.81;56.93;102185.91;5060634;28;19924;-58
2022/07/05 09:58:43;;;;;;;;;;;;;;;20.70;57.68;102190.00;5066577;28;19931;-53
2022/07/05 10:01:25;;;;;;;;;;;;;;;20.62;56.30;102189.31;5061905;28;20019;-53
2022/07/05 10:03:51;;;;;;;;;;;;;;;20.36;57.07;102182.66;5059397;28;19920;-55
2022/07/05 10:06:16;;;;;;;;;;;;;;;20.28;57.02;102186.34;5061977;28;19994;-54
2022/07/05 10:08:43;;;;;;;;;;;;;;;20.14;57.54;102180.00;5058750;28;20533;-63
2022/07/05 10:11:08;;;;;;;;;;;;;;;20.03;57.81;102190.25;5060642;28;19924;-58
2022/07/05 10:13:34;;;;;;;;;;;;;;;19.94;57.64;102194.06;5054724;28;19921;-56
2022/07/05 10:15:59;;;;;;;;;;;;;;;19.88;58.34;102208.25;5057917;28;19925;-57
2022/07/05 10:18:31;;;;;;;;;;;;;;;19.78;58.81;102202.38;5059400;28;20028;-57
2022/07/05 10:20:58;;;;;;;;;;;;;;;19.75;59.08;102204.41;5060181;28;19933;-59
2022/07/05 10:23:23;;;;;;;;;;;;;;;19.75;59.76;102200.91;5053522;28;19975;-58
2022/07/05 10:25:49;;;;;;;;;;;;;;;19.94;59.96;102191.38;5063469;28;19990;-58
2022/07/05 10:28:16;;;;;;;;;;;;;;;20.22;59.70;102193.31;5057595;28;19950;-58
2022/07/05 10:30:44;;;;;;;;;;;;;;;20.35;58.02;102197.16;5057661;28;19963;-60
2022/07/05 10:33:10;;;;;;;;;;;;;;;20.32;58.54;102192.16;5064568;28;19993;-59
2022/07/05 10:35:35;;;;;;;;;;;;;;;20.30;57.45;102200.44;5066822;28;20354;-59
2022/07/05 10:38:01;;;;;;;;;;;;;;;20.26;57.31;102194.59;5061141;28;20406;-59
2022/07/05 10:40:28;;;;;;;;;;;;;;;20.23;57.02;102194.97;5059264;28;20272;-58
2022/07/05 10:42:58;;;;;;;;;;;;;;;20.24;57.90;102196.66;5065695;28;20539;-58
2022/07/05 10:45:38;;;;;;;;;;;;;;;20.40;57.68;102192.88;5070150;28;20001;-58
2022/07/05 10:48:10;;;;;;;;;;;;;;;20.74;57.45;102190.44;5064431;28;20007;-58
2022/07/05 10:50:54;;;;;;;;;;;;;;;21.01;56.76;102190.59;5061462;28;20446;-58
2022/07/05 10:53:19;;;;;;;;;;;;;;;21.22;55.23;102192.38;5066233;28;20050;-60
2022/07/05 10:55:51;;;;;;;;;;;;;;;21.33;54.36;102188.31;5063448;28;20012;-58
2022/07/05 10:58:17;;;;;;;;;;;;;;;21.47;54.16;102185.66;5067626;28;19925;-59
2022/07/05 11:00:43;;;;;;;;;;;;;;;21.33;54.96;102192.84;5064527;28;19947;-60
2022/07/05 11:03:27;;;;;;;;;;;;;;;21.22;53.73;102191.56;5065244;28;19979;-60
2022/07/05 11:05:53;;;;;;;;;;;;;;;21.14;55.40;102194.41;5082751;28;19967;-59
2022/07/05 11:08:18;;;;;;;;;;;;;;;21.06;54.67;102198.09;5071918;28;19928;-60
2022/07/05 11:11:02;;;;;;;;;;;;;;;20.99;56.10;102198.06;5063650;28;19981;-59
2022/07/05 11:13:37;;;;;;;;;;;;;;;20.97;55.94;102202.84;5065341;28;19981;-59
2022/07/05 11:16:21;;;;;;;;;;;;;;;20.87;53.04;102199.66;5066096;28;20407;-59
2022/07/05 11:18:46;;;;;;;;;;;;;;;20.76;54.14;102204.53;5063099;28;20441;-59
2022/07/05 11:21:22;;;;;;;;;;;;;;;20.70;54.87;102208.00;5064223;28;19925;-59
2022/07/05 11:23:48;;;;;;;;;;;;;;;20.67;55.09;102200.34;5068701;28;19931;-58
2022/07/05 11:26:17;;;;;;;;;;;;;;;20.67;55.75;102197.63;5087150;28;19920;-59
2022/07/05 11:28:43;;;;;;;;;;;;;;;20.70;55.65;102205.31;5063884;28;19924;-59
2022/07/05 11:31:09;;;;;;;;;;;;;;;20.74;56.19;102190.44;5057879;28;19935;-58
2022/07/05 11:33:35;;;;;;;;;;;;;;;20.84;56.00;102203.56;5074805;28;19928;-59
2022/07/05 11:36:03;;;;;;;;;;;;;;;20.85;55.85;102196.31;5066890;28;19985;-60
2022/07/05 11:38:30;;;;;;;;;;;;;;;20.83;56.40;102197.31;5064339;28;20050;-60
2022/07/05 11:40:55;;;;;;;;;;;;;;;20.83;56.63;102204.59;5060508;28;19981;-59
2022/07/05 11:43:27;;;;;;;;;;;;;;;20.89;55.60;102192.19;5045207;28;19929;-59
2022/07/05 11:45:59;;;;;;;;;;;;;;;21.15;54.02;102191.53;5058466;28;20382;-59
2022/07/05 11:48:25;;;;;;;;;;;;;;;21.26;54.34;102186.59;5055471;28;19936;-62
2022/07/05 11:50:50;;;;;;;;;;;;;;;21.47;53.59;102182.94;5068541;28;19927;-60
2022/07/05 11:53:25;;;;;;;;;;;;;;;21.58;54.02;102182.38;5072125;28;20697;-61
2022/07/05 11:55:53;;;;;;;;;;;;;;;21.70;53.61;102171.84;5077046;28;19982;-62
2022/07/05 11:58:19;;;;;;;;;;;;;;;21.87;52.66;102183.06;5050703;28;20035;-59
2022/07/05 12:00:44;;;;;;;;;;;;;;;21.93;51.92;102181.44;5073686;28;19935;-60
2022/07/05 12:03:13;;;;;;;;;;;;;;;22.00;52.77;102181.47;5075108;28;19929;-59
2022/07/05 12:05:38;;;;;;;;;;;;;;;22.01;52.78;102177.72;5061949;28;19924;-58
2022/07/05 12:08:03;;;;;;;;;;;;;;;21.98;51.96;102178.13;5064817;28;20028;-59
2022/07/05 12:13:12;;;;;;;;;;;;;;;21.66;53.14;102183.22;5070266;28;20315;-59
2022/07/05 12:15:38;;;;;;;;;;;;;;;21.52;52.82;102180.47;5060999;28;20016;-62
2022/07/05 12:18:04;;;;;;;;;;;;;;;21.29;53.18;102181.63;5066054;28;19924;-61
2022/07/05 12:20:34;;;;;;;;;;;;;;;21.25;52.80;102188.44;5046392;28;19924;-61
2022/07/05 12:23:00;;;;;;;;;;;;;;;21.34;52.77;102183.72;5057749;28;19921;-58
2022/07/05 12:25:26;;;;;;;;;;;;;;;21.62;52.63;102180.91;5062218;28;20791;-61
2022/07/05 12:27:52;;;;;;;;;;;;;;;21.76;51.12;102179.13;5063093;28;19929;-62
2022/07/05 12:30:18;;;;;;;;;;;;;;;21.88;50.65;102178.50;5054071;28;19925;-59
2022/07/05 12:33:02;;;;;;;;;;;;;;;22.00;50.71;102176.06;5058215;28;19935;-58
2022/07/05 12:35:29;;;;;;;;;;;;;;;22.24;51.14;102177.31;5047998;28;19928;-58
2022/07/05 12:37:55;;;;;;;;;;;;;;;22.47;49.63;102175.22;5075177;28;19955;-60
2022/07/05 12:40:21;;;;;;;;;;;;;;;22.32;50.28;102168.16;5055976;28;19976;-61